sensor_id;sensor_type;location;lat;lon;timestamp;P1;durP1;ratioP1;P2;durP2;ratioP2
70832;SDS011;71099;59.528;17.886;2024-02-23T00:01:45;25.20;;;13.50;;
70832;SDS011;71099;59.528;17.886;2024-02-23T00:04:12;31.35;;;14.32;;
70832;SDS011;71099;59.528;17.886;2024-02-23T00:06:37;24.25;;;12.55;;
70832;SDS011;71099;59.528;17.886;2024-02-23T00:09:03;30.08;;;13.68;;
70832;SDS011;71099;59.528;17.886;2024-02-23T00:11:28;24.60;;;13.20;;
70832;SDS011;71099;59.528;17.886;2024-02-23T00:13:54;28.42;;;14.40;;
70832;SDS011;71099;59.528;17.886;2024-02-23T00:16:19;26.40;;;13.77;;
70832;SDS011;71099;59.528;17.886;2024-02-23T00:18:45;25.90;;;12.73;;
70832;SDS011;71099;59.528;17.886;2024-02-23T00:21:10;27.63;;;16.25;;
70832;SDS011;71099;59.528;17.886;2024-02-23T00:23:36;26.08;;;13.93;;
70832;SDS011;71099;59.528;17.886;2024-02-23T00:26:01;24.85;;;13.77;;
70832;SDS011;71099;59.528;17.886;2024-02-23T00:28:27;32.80;;;13.45;;
70832;SDS011;71099;59.528;17.886;2024-02-23T00:30:52;25.17;;;14.05;;
70832;SDS011;71099;59.528;17.886;2024-02-23T00:33:18;27.50;;;13.18;;
70832;SDS011;71099;59.528;17.886;2024-02-23T00:35:43;29.45;;;14.38;;
70832;SDS011;71099;59.528;17.886;2024-02-23T00:38:09;31.75;;;14.80;;
70832;SDS011;71099;59.528;17.886;2024-02-23T00:40:34;30.30;;;14.52;;
70832;SDS011;71099;59.528;17.886;2024-02-23T00:43:00;32.03;;;15.40;;
70832;SDS011;71099;59.528;17.886;2024-02-23T00:45:26;29.35;;;15.30;;
70832;SDS011;71099;59.528;17.886;2024-02-23T00:47:51;31.60;;;16.08;;
70832;SDS011;71099;59.528;17.886;2024-02-23T00:50:17;25.30;;;12.57;;
70832;SDS011;71099;59.528;17.886;2024-02-23T00:52:42;25.45;;;12.27;;
70832;SDS011;71099;59.528;17.886;2024-02-23T00:55:08;22.17;;;12.05;;
70832;SDS011;71099;59.528;17.886;2024-02-23T00:57:34;28.85;;;12.95;;
70832;SDS011;71099;59.528;17.886;2024-02-23T01:00:00;23.65;;;14.23;;
70832;SDS011;71099;59.528;17.886;2024-02-23T01:02:27;23.13;;;12.40;;
70832;SDS011;71099;59.528;17.886;2024-02-23T01:04:53;20.88;;;13.25;;
70832;SDS011;71099;59.528;17.886;2024-02-23T01:07:23;24.02;;;11.93;;
70832;SDS011;71099;59.528;17.886;2024-02-23T01:09:49;21.88;;;12.27;;
70832;SDS011;71099;59.528;17.886;2024-02-23T01:12:15;22.42;;;12.15;;
70832;SDS011;71099;59.528;17.886;2024-02-23T01:14:40;38.42;;;15.45;;
70832;SDS011;71099;59.528;17.886;2024-02-23T01:17:06;26.77;;;11.75;;
70832;SDS011;71099;59.528;17.886;2024-02-23T01:19:31;23.63;;;12.60;;
70832;SDS011;71099;59.528;17.886;2024-02-23T01:21:56;26.67;;;14.73;;
70832;SDS011;71099;59.528;17.886;2024-02-23T01:24:25;25.30;;;11.98;;
70832;SDS011;71099;59.528;17.886;2024-02-23T01:26:54;20.95;;;11.93;;
70832;SDS011;71099;59.528;17.886;2024-02-23T01:29:20;24.50;;;12.25;;
70832;SDS011;71099;59.528;17.886;2024-02-23T01:31:49;22.48;;;12.95;;
70832;SDS011;71099;59.528;17.886;2024-02-23T01:34:14;29.85;;;12.95;;
70832;SDS011;71099;59.528;17.886;2024-02-23T01:36:40;29.70;;;13.82;;
70832;SDS011;71099;59.528;17.886;2024-02-23T01:39:05;30.52;;;14.77;;
70832;SDS011;71099;59.528;17.886;2024-02-23T01:41:31;28.35;;;13.57;;
70832;SDS011;71099;59.528;17.886;2024-02-23T01:43:57;24.67;;;12.90;;
70832;SDS011;71099;59.528;17.886;2024-02-23T01:46:23;25.15;;;13.25;;
70832;SDS011;71099;59.528;17.886;2024-02-23T01:48:48;23.15;;;13.80;;
70832;SDS011;71099;59.528;17.886;2024-02-23T01:51:14;24.95;;;13.07;;
70832;SDS011;71099;59.528;17.886;2024-02-23T01:53:39;26.63;;;14.55;;
70832;SDS011;71099;59.528;17.886;2024-02-23T01:56:05;31.20;;;13.30;;
70832;SDS011;71099;59.528;17.886;2024-02-23T01:58:31;21.20;;;13.40;;
70832;SDS011;71099;59.528;17.886;2024-02-23T02:00:59;22.13;;;11.95;;
70832;SDS011;71099;59.528;17.886;2024-02-23T02:03:25;24.10;;;12.18;;
70832;SDS011;71099;59.528;17.886;2024-02-23T02:05:53;23.77;;;13.40;;
70832;SDS011;71099;59.528;17.886;2024-02-23T02:08:22;21.02;;;13.32;;
70832;SDS011;71099;59.528;17.886;2024-02-23T02:10:48;20.48;;;11.80;;
70832;SDS011;71099;59.528;17.886;2024-02-23T02:13:14;24.63;;;13.27;;
70832;SDS011;71099;59.528;17.886;2024-02-23T02:15:40;22.08;;;12.52;;
70832;SDS011;71099;59.528;17.886;2024-02-23T02:18:05;23.63;;;13.00;;
70832;SDS011;71099;59.528;17.886;2024-02-23T02:20:32;23.20;;;12.88;;
70832;SDS011;71099;59.528;17.886;2024-02-23T02:22:58;24.48;;;11.88;;
70832;SDS011;71099;59.528;17.886;2024-02-23T02:25:24;20.83;;;12.55;;
70832;SDS011;71099;59.528;17.886;2024-02-23T02:27:50;27.05;;;14.57;;
70832;SDS011;71099;59.528;17.886;2024-02-23T02:30:15;23.88;;;12.82;;
70832;SDS011;71099;59.528;17.886;2024-02-23T02:32:41;25.65;;;14.10;;
70832;SDS011;71099;59.528;17.886;2024-02-23T02:35:07;31.00;;;14.80;;
70832;SDS011;71099;59.528;17.886;2024-02-23T02:37:32;23.95;;;14.55;;
70832;SDS011;71099;59.528;17.886;2024-02-23T02:39:58;30.08;;;13.90;;
70832;SDS011;71099;59.528;17.886;2024-02-23T02:42:24;25.58;;;13.55;;
70832;SDS011;71099;59.528;17.886;2024-02-23T02:44:49;29.83;;;15.70;;
70832;SDS011;71099;59.528;17.886;2024-02-23T02:47:14;25.02;;;15.18;;
70832;SDS011;71099;59.528;17.886;2024-02-23T02:49:40;26.58;;;14.45;;
70832;SDS011;71099;59.528;17.886;2024-02-23T02:52:06;26.08;;;14.10;;
70832;SDS011;71099;59.528;17.886;2024-02-23T02:54:33;26.35;;;14.40;;
70832;SDS011;71099;59.528;17.886;2024-02-23T02:56:58;22.00;;;13.65;;
70832;SDS011;71099;59.528;17.886;2024-02-23T02:59:24;28.50;;;14.68;;
70832;SDS011;71099;59.528;17.886;2024-02-23T03:01:49;26.08;;;14.10;;
70832;SDS011;71099;59.528;17.886;2024-02-23T03:04:15;28.33;;;14.45;;
70832;SDS011;71099;59.528;17.886;2024-02-23T03:06:40;23.85;;;13.45;;
70832;SDS011;71099;59.528;17.886;2024-02-23T03:09:06;25.33;;;13.02;;
70832;SDS011;71099;59.528;17.886;2024-02-23T03:11:32;23.95;;;14.48;;
70832;SDS011;71099;59.528;17.886;2024-02-23T03:13:57;22.65;;;12.68;;
70832;SDS011;71099;59.528;17.886;2024-02-23T03:16:23;24.17;;;13.02;;
70832;SDS011;71099;59.528;17.886;2024-02-23T03:18:51;25.27;;;13.55;;
70832;SDS011;71099;59.528;17.886;2024-02-23T03:21:16;23.65;;;13.98;;
70832;SDS011;71099;59.528;17.886;2024-02-23T03:23:42;26.90;;;13.73;;
70832;SDS011;71099;59.528;17.886;2024-02-23T03:26:07;21.20;;;12.95;;
70832;SDS011;71099;59.528;17.886;2024-02-23T03:28:33;22.48;;;12.80;;
70832;SDS011;71099;59.528;17.886;2024-02-23T03:31:02;27.40;;;14.77;;
70832;SDS011;71099;59.528;17.886;2024-02-23T03:33:27;25.45;;;14.88;;
70832;SDS011;71099;59.528;17.886;2024-02-23T03:35:53;21.50;;;12.55;;
70832;SDS011;71099;59.528;17.886;2024-02-23T03:38:18;23.20;;;12.23;;
70832;SDS011;71099;59.528;17.886;2024-02-23T03:40:44;20.17;;;12.90;;
70832;SDS011;71099;59.528;17.886;2024-02-23T03:43:09;20.58;;;12.77;;
70832;SDS011;71099;59.528;17.886;2024-02-23T03:45:34;22.92;;;10.57;;
70832;SDS011;71099;59.528;17.886;2024-02-23T03:48:00;20.40;;;11.60;;
70832;SDS011;71099;59.528;17.886;2024-02-23T03:50:29;17.58;;;10.82;;
70832;SDS011;71099;59.528;17.886;2024-02-23T03:52:55;16.45;;;10.05;;
70832;SDS011;71099;59.528;17.886;2024-02-23T03:55:20;19.05;;;11.70;;
70832;SDS011;71099;59.528;17.886;2024-02-23T03:57:47;16.23;;;10.45;;
70832;SDS011;71099;59.528;17.886;2024-02-23T04:00:12;19.63;;;11.20;;
70832;SDS011;71099;59.528;17.886;2024-02-23T04:02:38;16.00;;;10.07;;
70832;SDS011;71099;59.528;17.886;2024-02-23T04:05:04;16.48;;;9.38;;
70832;SDS011;71099;59.528;17.886;2024-02-23T04:07:30;14.43;;;9.02;;
70832;SDS011;71099;59.528;17.886;2024-02-23T04:09:56;17.67;;;10.95;;
70832;SDS011;71099;59.528;17.886;2024-02-23T04:12:21;15.52;;;10.90;;
70832;SDS011;71099;59.528;17.886;2024-02-23T04:14:47;19.00;;;10.90;;
70832;SDS011;71099;59.528;17.886;2024-02-23T04:17:12;17.98;;;10.50;;
70832;SDS011;71099;59.528;17.886;2024-02-23T04:19:40;14.73;;;10.68;;
70832;SDS011;71099;59.528;17.886;2024-02-23T04:22:06;17.63;;;10.23;;
70832;SDS011;71099;59.528;17.886;2024-02-23T04:24:35;17.38;;;10.77;;
70832;SDS011;71099;59.528;17.886;2024-02-23T04:27:01;22.98;;;13.40;;
70832;SDS011;71099;59.528;17.886;2024-02-23T04:29:27;22.30;;;14.10;;
70832;SDS011;71099;59.528;17.886;2024-02-23T04:31:52;20.73;;;12.43;;
70832;SDS011;71099;59.528;17.886;2024-02-23T04:34:18;25.30;;;13.88;;
70832;SDS011;71099;59.528;17.886;2024-02-23T04:36:43;26.05;;;13.75;;
70832;SDS011;71099;59.528;17.886;2024-02-23T04:39:09;24.08;;;14.38;;
70832;SDS011;71099;59.528;17.886;2024-02-23T04:41:34;30.13;;;15.60;;
70832;SDS011;71099;59.528;17.886;2024-02-23T04:44:00;23.52;;;12.75;;
70832;SDS011;71099;59.528;17.886;2024-02-23T04:46:26;27.08;;;12.07;;
70832;SDS011;71099;59.528;17.886;2024-02-23T04:48:52;24.10;;;11.50;;
70832;SDS011;71099;59.528;17.886;2024-02-23T04:51:17;22.60;;;10.30;;
70832;SDS011;71099;59.528;17.886;2024-02-23T04:53:43;21.08;;;10.70;;
70832;SDS011;71099;59.528;17.886;2024-02-23T04:56:09;17.75;;;11.02;;
70832;SDS011;71099;59.528;17.886;2024-02-23T04:58:34;18.65;;;10.95;;
70832;SDS011;71099;59.528;17.886;2024-02-23T05:01:00;17.17;;;10.45;;
70832;SDS011;71099;59.528;17.886;2024-02-23T05:03:25;16.48;;;11.18;;
70832;SDS011;71099;59.528;17.886;2024-02-23T05:05:51;17.42;;;9.57;;
70832;SDS011;71099;59.528;17.886;2024-02-23T05:08:21;15.95;;;9.30;;
70832;SDS011;71099;59.528;17.886;2024-02-23T05:10:49;18.70;;;11.20;;
70832;SDS011;71099;59.528;17.886;2024-02-23T05:13:15;17.58;;;9.32;;
70832;SDS011;71099;59.528;17.886;2024-02-23T05:15:40;18.23;;;10.07;;
70832;SDS011;71099;59.528;17.886;2024-02-23T05:18:06;18.70;;;10.82;;
70832;SDS011;71099;59.528;17.886;2024-02-23T05:20:31;19.17;;;10.38;;
70832;SDS011;71099;59.528;17.886;2024-02-23T05:22:57;14.30;;;9.00;;
70832;SDS011;71099;59.528;17.886;2024-02-23T05:25:22;17.52;;;10.13;;
70832;SDS011;71099;59.528;17.886;2024-02-23T05:27:47;13.00;;;7.90;;
70832;SDS011;71099;59.528;17.886;2024-02-23T05:30:13;13.55;;;8.27;;
70832;SDS011;71099;59.528;17.886;2024-02-23T05:32:38;12.88;;;8.05;;
70832;SDS011;71099;59.528;17.886;2024-02-23T05:35:04;11.88;;;7.47;;
70832;SDS011;71099;59.528;17.886;2024-02-23T05:37:30;11.77;;;8.00;;
70832;SDS011;71099;59.528;17.886;2024-02-23T05:39:56;14.02;;;7.53;;
70832;SDS011;71099;59.528;17.886;2024-02-23T05:42:21;13.70;;;7.97;;
70832;SDS011;71099;59.528;17.886;2024-02-23T05:44:46;12.82;;;8.10;;
70832;SDS011;71099;59.528;17.886;2024-02-23T05:47:13;11.07;;;7.28;;
70832;SDS011;71099;59.528;17.886;2024-02-23T05:49:39;11.57;;;7.35;;
70832;SDS011;71099;59.528;17.886;2024-02-23T05:52:05;12.90;;;8.18;;
70832;SDS011;71099;59.528;17.886;2024-02-23T05:54:30;11.45;;;7.32;;
70832;SDS011;71099;59.528;17.886;2024-02-23T05:56:56;13.07;;;7.63;;
70832;SDS011;71099;59.528;17.886;2024-02-23T05:59:21;12.77;;;8.70;;
70832;SDS011;71099;59.528;17.886;2024-02-23T06:01:47;12.00;;;8.23;;
70832;SDS011;71099;59.528;17.886;2024-02-23T06:04:12;11.52;;;8.18;;
70832;SDS011;71099;59.528;17.886;2024-02-23T06:06:40;12.10;;;8.00;;
70832;SDS011;71099;59.528;17.886;2024-02-23T06:09:07;12.02;;;7.75;;
70832;SDS011;71099;59.528;17.886;2024-02-23T06:11:33;10.82;;;7.57;;
70832;SDS011;71099;59.528;17.886;2024-02-23T06:13:58;14.52;;;8.90;;
70832;SDS011;71099;59.528;17.886;2024-02-23T06:16:24;12.55;;;8.13;;
70832;SDS011;71099;59.528;17.886;2024-02-23T06:18:52;13.70;;;7.63;;
70832;SDS011;71099;59.528;17.886;2024-02-23T06:21:17;13.13;;;7.97;;
70832;SDS011;71099;59.528;17.886;2024-02-23T06:23:43;12.15;;;7.07;;
70832;SDS011;71099;59.528;17.886;2024-02-23T06:26:09;13.52;;;8.05;;
70832;SDS011;71099;59.528;17.886;2024-02-23T06:28:35;12.48;;;7.80;;
70832;SDS011;71099;59.528;17.886;2024-02-23T06:31:04;11.02;;;8.35;;
70832;SDS011;71099;59.528;17.886;2024-02-23T06:33:30;10.60;;;7.60;;
70832;SDS011;71099;59.528;17.886;2024-02-23T06:35:56;12.32;;;8.02;;
70832;SDS011;71099;59.528;17.886;2024-02-23T06:38:21;14.27;;;9.25;;
70832;SDS011;71099;59.528;17.886;2024-02-23T06:40:47;14.75;;;7.85;;
70832;SDS011;71099;59.528;17.886;2024-02-23T06:43:12;13.35;;;7.75;;
70832;SDS011;71099;59.528;17.886;2024-02-23T06:45:38;11.95;;;8.15;;
70832;SDS011;71099;59.528;17.886;2024-02-23T06:48:03;13.77;;;8.45;;
70832;SDS011;71099;59.528;17.886;2024-02-23T06:50:29;12.77;;;8.40;;
70832;SDS011;71099;59.528;17.886;2024-02-23T06:52:55;17.60;;;9.18;;
70832;SDS011;71099;59.528;17.886;2024-02-23T06:55:20;13.75;;;8.10;;
70832;SDS011;71099;59.528;17.886;2024-02-23T06:57:46;15.55;;;8.80;;
70832;SDS011;71099;59.528;17.886;2024-02-23T07:00:12;15.85;;;9.00;;
70832;SDS011;71099;59.528;17.886;2024-02-23T07:02:38;18.10;;;9.55;;
70832;SDS011;71099;59.528;17.886;2024-02-23T07:05:03;18.55;;;10.73;;
70832;SDS011;71099;59.528;17.886;2024-02-23T07:07:30;18.45;;;10.13;;
70832;SDS011;71099;59.528;17.886;2024-02-23T07:09:56;19.10;;;10.00;;
70832;SDS011;71099;59.528;17.886;2024-02-23T07:12:22;24.08;;;10.35;;
70832;SDS011;71099;59.528;17.886;2024-02-23T07:14:48;17.38;;;10.20;;
70832;SDS011;71099;59.528;17.886;2024-02-23T07:17:17;19.10;;;11.13;;
70832;SDS011;71099;59.528;17.886;2024-02-23T07:19:42;18.25;;;11.88;;
70832;SDS011;71099;59.528;17.886;2024-02-23T07:22:08;18.25;;;10.90;;
70832;SDS011;71099;59.528;17.886;2024-02-23T07:24:33;15.85;;;9.52;;
70832;SDS011;71099;59.528;17.886;2024-02-23T07:26:59;17.73;;;11.05;;
70832;SDS011;71099;59.528;17.886;2024-02-23T07:29:24;17.52;;;10.63;;
70832;SDS011;71099;59.528;17.886;2024-02-23T07:31:50;19.95;;;11.35;;
70832;SDS011;71099;59.528;17.886;2024-02-23T07:34:15;16.15;;;11.07;;
70832;SDS011;71099;59.528;17.886;2024-02-23T07:36:40;18.70;;;10.77;;
70832;SDS011;71099;59.528;17.886;2024-02-23T07:39:06;18.65;;;12.18;;
70832;SDS011;71099;59.528;17.886;2024-02-23T07:41:32;21.88;;;12.02;;
70832;SDS011;71099;59.528;17.886;2024-02-23T07:43:57;19.23;;;11.63;;
70832;SDS011;71099;59.528;17.886;2024-02-23T07:46:22;21.40;;;11.98;;
70832;SDS011;71099;59.528;17.886;2024-02-23T07:48:48;24.75;;;12.55;;
70832;SDS011;71099;59.528;17.886;2024-02-23T07:51:13;20.92;;;13.75;;
70832;SDS011;71099;59.528;17.886;2024-02-23T07:53:39;23.10;;;12.80;;
70832;SDS011;71099;59.528;17.886;2024-02-23T07:56:07;23.88;;;13.02;;
70832;SDS011;71099;59.528;17.886;2024-02-23T07:58:33;21.65;;;12.88;;
70832;SDS011;71099;59.528;17.886;2024-02-23T08:00:58;20.80;;;12.52;;
70832;SDS011;71099;59.528;17.886;2024-02-23T08:03:24;22.85;;;12.23;;
70832;SDS011;71099;59.528;17.886;2024-02-23T08:05:49;25.95;;;13.02;;
70832;SDS011;71099;59.528;17.886;2024-02-23T08:08:15;17.98;;;11.70;;
70832;SDS011;71099;59.528;17.886;2024-02-23T08:10:40;17.23;;;11.65;;
70832;SDS011;71099;59.528;17.886;2024-02-23T08:13:05;19.90;;;12.80;;
70832;SDS011;71099;59.528;17.886;2024-02-23T08:15:31;14.48;;;10.00;;
70832;SDS011;71099;59.528;17.886;2024-02-23T08:17:56;17.10;;;10.95;;
70832;SDS011;71099;59.528;17.886;2024-02-23T08:20:22;17.15;;;10.90;;
70832;SDS011;71099;59.528;17.886;2024-02-23T08:22:48;15.80;;;10.55;;
70832;SDS011;71099;59.528;17.886;2024-02-23T08:25:13;16.73;;;10.13;;
70832;SDS011;71099;59.528;17.886;2024-02-23T08:27:40;13.60;;;9.48;;
70832;SDS011;71099;59.528;17.886;2024-02-23T08:30:06;16.58;;;10.02;;
70832;SDS011;71099;59.528;17.886;2024-02-23T08:32:32;16.45;;;10.88;;
70832;SDS011;71099;59.528;17.886;2024-02-23T08:34:57;17.35;;;10.50;;
70832;SDS011;71099;59.528;17.886;2024-02-23T08:37:27;22.05;;;11.18;;
70832;SDS011;71099;59.528;17.886;2024-02-23T08:39:52;18.75;;;11.73;;
70832;SDS011;71099;59.528;17.886;2024-02-23T08:42:18;19.02;;;11.40;;
70832;SDS011;71099;59.528;17.886;2024-02-23T08:44:44;20.67;;;11.82;;
70832;SDS011;71099;59.528;17.886;2024-02-23T08:47:09;21.30;;;11.98;;
70832;SDS011;71099;59.528;17.886;2024-02-23T08:49:34;23.77;;;13.25;;
70832;SDS011;71099;59.528;17.886;2024-02-23T08:52:00;19.17;;;11.50;;
70832;SDS011;71099;59.528;17.886;2024-02-23T08:54:25;18.23;;;11.32;;
70832;SDS011;71099;59.528;17.886;2024-02-23T08:56:51;21.35;;;12.88;;
70832;SDS011;71099;59.528;17.886;2024-02-23T08:59:16;20.08;;;12.10;;
70832;SDS011;71099;59.528;17.886;2024-02-23T09:01:41;19.50;;;13.13;;
70832;SDS011;71099;59.528;17.886;2024-02-23T09:04:09;25.50;;;14.70;;
70832;SDS011;71099;59.528;17.886;2024-02-23T09:06:34;22.15;;;13.82;;
70832;SDS011;71099;59.528;17.886;2024-02-23T09:09:00;25.50;;;12.68;;
70832;SDS011;71099;59.528;17.886;2024-02-23T09:11:25;27.52;;;13.98;;
70832;SDS011;71099;59.528;17.886;2024-02-23T09:13:51;20.00;;;11.40;;
70832;SDS011;71099;59.528;17.886;2024-02-23T09:16:16;19.50;;;11.63;;
70832;SDS011;71099;59.528;17.886;2024-02-23T09:18:42;21.80;;;11.95;;
70832;SDS011;71099;59.528;17.886;2024-02-23T09:21:08;17.75;;;10.80;;
70832;SDS011;71099;59.528;17.886;2024-02-23T09:23:33;17.55;;;10.50;;
70832;SDS011;71099;59.528;17.886;2024-02-23T09:25:59;18.17;;;10.75;;
70832;SDS011;71099;59.528;17.886;2024-02-23T09:28:24;17.42;;;10.55;;
70832;SDS011;71099;59.528;17.886;2024-02-23T09:30:50;19.40;;;10.82;;
70832;SDS011;71099;59.528;17.886;2024-02-23T09:33:15;17.27;;;10.98;;
70832;SDS011;71099;59.528;17.886;2024-02-23T09:35:41;15.05;;;10.70;;
70832;SDS011;71099;59.528;17.886;2024-02-23T09:38:06;14.73;;;10.02;;
70832;SDS011;71099;59.528;17.886;2024-02-23T09:40:31;21.33;;;11.63;;
70832;SDS011;71099;59.528;17.886;2024-02-23T09:42:57;16.80;;;10.10;;
70832;SDS011;71099;59.528;17.886;2024-02-23T09:45:24;21.70;;;12.98;;
70832;SDS011;71099;59.528;17.886;2024-02-23T09:47:52;19.63;;;10.00;;
70832;SDS011;71099;59.528;17.886;2024-02-23T09:50:20;15.20;;;9.73;;
70832;SDS011;71099;59.528;17.886;2024-02-23T09:52:47;17.48;;;10.60;;
70832;SDS011;71099;59.528;17.886;2024-02-23T09:55:15;15.95;;;10.07;;
70832;SDS011;71099;59.528;17.886;2024-02-23T09:57:45;19.00;;;10.05;;
70832;SDS011;71099;59.528;17.886;2024-02-23T10:00:14;15.38;;;10.07;;
70832;SDS011;71099;59.528;17.886;2024-02-23T10:02:42;13.35;;;9.05;;
70832;SDS011;71099;59.528;17.886;2024-02-23T10:05:08;19.48;;;9.35;;
70832;SDS011;71099;59.528;17.886;2024-02-23T10:07:35;12.93;;;8.13;;
70832;SDS011;71099;59.528;17.886;2024-02-23T10:10:01;20.92;;;9.25;;
70832;SDS011;71099;59.528;17.886;2024-02-23T10:12:26;11.43;;;7.32;;
70832;SDS011;71099;59.528;17.886;2024-02-23T10:14:53;10.50;;;7.70;;
70832;SDS011;71099;59.528;17.886;2024-02-23T10:17:19;13.20;;;8.13;;
70832;SDS011;71099;59.528;17.886;2024-02-23T10:19:48;10.50;;;7.60;;
70832;SDS011;71099;59.528;17.886;2024-02-23T10:22:14;12.60;;;6.97;;
70832;SDS011;71099;59.528;17.886;2024-02-23T10:24:39;13.05;;;7.20;;
70832;SDS011;71099;59.528;17.886;2024-02-23T10:27:07;12.25;;;6.40;;
70832;SDS011;71099;59.528;17.886;2024-02-23T10:29:33;15.68;;;6.13;;
70832;SDS011;71099;59.528;17.886;2024-02-23T10:31:58;20.20;;;8.00;;
70832;SDS011;71099;59.528;17.886;2024-02-23T10:34:25;5.85;;;4.65;;
70832;SDS011;71099;59.528;17.886;2024-02-23T10:36:52;7.28;;;5.43;;
70832;SDS011;71099;59.528;17.886;2024-02-23T10:39:19;10.77;;;5.80;;
70832;SDS011;71099;59.528;17.886;2024-02-23T10:41:46;8.40;;;5.05;;
70832;SDS011;71099;59.528;17.886;2024-02-23T10:44:15;8.90;;;4.18;;
70832;SDS011;71099;59.528;17.886;2024-02-23T10:46:42;6.93;;;3.65;;
70832;SDS011;71099;59.528;17.886;2024-02-23T10:49:09;4.97;;;3.42;;
70832;SDS011;71099;59.528;17.886;2024-02-23T10:51:38;7.00;;;3.47;;
70832;SDS011;71099;59.528;17.886;2024-02-23T10:54:05;6.00;;;3.65;;
70832;SDS011;71099;59.528;17.886;2024-02-23T10:56:31;4.78;;;3.25;;
70832;SDS011;71099;59.528;17.886;2024-02-23T10:58:56;4.93;;;3.83;;
70832;SDS011;71099;59.528;17.886;2024-02-23T11:01:22;5.43;;;2.58;;
70832;SDS011;71099;59.528;17.886;2024-02-23T11:03:49;7.07;;;3.55;;
70832;SDS011;71099;59.528;17.886;2024-02-23T11:06:17;6.35;;;2.88;;
70832;SDS011;71099;59.528;17.886;2024-02-23T11:08:46;3.35;;;2.22;;
70832;SDS011;71099;59.528;17.886;2024-02-23T11:11:15;4.25;;;1.77;;
70832;SDS011;71099;59.528;17.886;2024-02-23T11:13:44;3.42;;;1.65;;
70832;SDS011;71099;59.528;17.886;2024-02-23T11:16:10;4.03;;;2.17;;
70832;SDS011;71099;59.528;17.886;2024-02-23T11:18:36;5.05;;;1.83;;
70832;SDS011;71099;59.528;17.886;2024-02-23T11:21:04;3.67;;;1.70;;
70832;SDS011;71099;59.528;17.886;2024-02-23T11:23:49;5.65;;;1.85;;
70832;SDS011;71099;59.528;17.886;2024-02-23T11:26:16;2.10;;;1.42;;
70832;SDS011;71099;59.528;17.886;2024-02-23T11:28:51;4.07;;;1.35;;
70832;SDS011;71099;59.528;17.886;2024-02-23T11:31:20;3.22;;;0.88;;
70832;SDS011;71099;59.528;17.886;2024-02-23T11:33:49;3.95;;;1.35;;
70832;SDS011;71099;59.528;17.886;2024-02-23T11:36:27;1.70;;;0.90;;
70832;SDS011;71099;59.528;17.886;2024-02-23T11:38:54;6.47;;;2.08;;
70832;SDS011;71099;59.528;17.886;2024-02-23T11:41:22;3.22;;;1.25;;
70832;SDS011;71099;59.528;17.886;2024-02-23T11:43:51;3.25;;;1.08;;
70832;SDS011;71099;59.528;17.886;2024-02-23T11:46:17;3.55;;;1.48;;
70832;SDS011;71099;59.528;17.886;2024-02-23T11:48:44;2.60;;;0.90;;
70832;SDS011;71099;59.528;17.886;2024-02-23T11:51:11;1.90;;;0.80;;
70832;SDS011;71099;59.528;17.886;2024-02-23T11:53:37;4.20;;;1.10;;
70832;SDS011;71099;59.528;17.886;2024-02-23T11:56:04;1.48;;;0.82;;
70832;SDS011;71099;59.528;17.886;2024-02-23T11:58:30;2.28;;;0.90;;
70832;SDS011;71099;59.528;17.886;2024-02-23T12:00:56;2.70;;;0.77;;
70832;SDS011;71099;59.528;17.886;2024-02-23T12:03:21;5.10;;;0.70;;
70832;SDS011;71099;59.528;17.886;2024-02-23T12:05:49;1.23;;;0.70;;
70832;SDS011;71099;59.528;17.886;2024-02-23T12:08:15;2.38;;;0.40;;
70832;SDS011;71099;59.528;17.886;2024-02-23T12:10:41;2.33;;;0.63;;
70832;SDS011;71099;59.528;17.886;2024-02-23T12:13:06;2.25;;;0.82;;
70832;SDS011;71099;59.528;17.886;2024-02-23T12:15:32;3.45;;;0.95;;
70832;SDS011;71099;59.528;17.886;2024-02-23T12:17:58;1.75;;;0.95;;
70832;SDS011;71099;59.528;17.886;2024-02-23T12:20:25;2.58;;;1.30;;
70832;SDS011;71099;59.528;17.886;2024-02-23T12:22:50;1.05;;;0.70;;
70832;SDS011;71099;59.528;17.886;2024-02-23T12:25:20;4.63;;;0.75;;
70832;SDS011;71099;59.528;17.886;2024-02-23T12:27:46;4.75;;;1.27;;
70832;SDS011;71099;59.528;17.886;2024-02-23T12:30:14;3.88;;;1.02;;
70832;SDS011;71099;59.528;17.886;2024-02-23T12:32:41;1.23;;;0.50;;
70832;SDS011;71099;59.528;17.886;2024-02-23T12:35:06;2.00;;;0.80;;
70832;SDS011;71099;59.528;17.886;2024-02-23T12:37:35;1.95;;;0.73;;
70832;SDS011;71099;59.528;17.886;2024-02-23T12:40:01;1.55;;;0.55;;
70832;SDS011;71099;59.528;17.886;2024-02-23T12:42:26;5.80;;;0.80;;
70832;SDS011;71099;59.528;17.886;2024-02-23T12:44:51;2.40;;;0.65;;
70832;SDS011;71099;59.528;17.886;2024-02-23T12:47:17;3.00;;;1.40;;
70832;SDS011;71099;59.528;17.886;2024-02-23T12:49:42;3.47;;;0.70;;
70832;SDS011;71099;59.528;17.886;2024-02-23T12:52:08;3.40;;;0.80;;
70832;SDS011;71099;59.528;17.886;2024-02-23T12:54:33;4.20;;;1.30;;
70832;SDS011;71099;59.528;17.886;2024-02-23T12:56:59;1.80;;;0.40;;
70832;SDS011;71099;59.528;17.886;2024-02-23T12:59:25;3.00;;;0.70;;
70832;SDS011;71099;59.528;17.886;2024-02-23T13:01:50;2.67;;;0.60;;
70832;SDS011;71099;59.528;17.886;2024-02-23T13:04:15;5.68;;;1.05;;
70832;SDS011;71099;59.528;17.886;2024-02-23T13:06:41;3.80;;;0.77;;
70832;SDS011;71099;59.528;17.886;2024-02-23T13:09:07;6.68;;;0.80;;
70832;SDS011;71099;59.528;17.886;2024-02-23T13:11:34;3.58;;;0.90;;
70832;SDS011;71099;59.528;17.886;2024-02-23T13:14:00;2.85;;;0.90;;
70832;SDS011;71099;59.528;17.886;2024-02-23T13:16:26;3.92;;;0.85;;
70832;SDS011;71099;59.528;17.886;2024-02-23T13:18:52;1.38;;;0.93;;
70832;SDS011;71099;59.528;17.886;2024-02-23T13:21:18;5.45;;;0.85;;
70832;SDS011;71099;59.528;17.886;2024-02-23T13:23:43;3.15;;;0.60;;
70832;SDS011;71099;59.528;17.886;2024-02-23T13:26:09;3.17;;;0.80;;
70832;SDS011;71099;59.528;17.886;2024-02-23T13:28:35;4.93;;;1.00;;
70832;SDS011;71099;59.528;17.886;2024-02-23T13:31:01;4.70;;;1.17;;
70832;SDS011;71099;59.528;17.886;2024-02-23T13:33:28;6.43;;;1.17;;
70832;SDS011;71099;59.528;17.886;2024-02-23T13:35:53;4.00;;;1.30;;
70832;SDS011;71099;59.528;17.886;2024-02-23T13:38:20;2.50;;;1.27;;
70832;SDS011;71099;59.528;17.886;2024-02-23T13:40:45;4.82;;;1.38;;
70832;SDS011;71099;59.528;17.886;2024-02-23T13:43:11;3.92;;;0.80;;
70832;SDS011;71099;59.528;17.886;2024-02-23T13:45:52;5.40;;;1.13;;
70832;SDS011;71099;59.528;17.886;2024-02-23T13:48:18;5.35;;;1.05;;
70832;SDS011;71099;59.528;17.886;2024-02-23T13:50:45;1.70;;;0.80;;
70832;SDS011;71099;59.528;17.886;2024-02-23T13:53:12;4.93;;;0.73;;
70832;SDS011;71099;59.528;17.886;2024-02-23T13:55:38;8.77;;;1.83;;
70832;SDS011;71099;59.528;17.886;2024-02-23T13:58:04;6.70;;;1.00;;
70832;SDS011;71099;59.528;17.886;2024-02-23T14:00:29;4.60;;;1.42;;
70832;SDS011;71099;59.528;17.886;2024-02-23T14:02:55;5.88;;;1.65;;
70832;SDS011;71099;59.528;17.886;2024-02-23T14:05:20;6.97;;;1.42;;
70832;SDS011;71099;59.528;17.886;2024-02-23T14:07:47;3.85;;;1.00;;
70832;SDS011;71099;59.528;17.886;2024-02-23T14:10:13;2.40;;;1.23;;
70832;SDS011;71099;59.528;17.886;2024-02-23T14:12:39;6.70;;;1.15;;